createdAt,value
2018-07-15T00:00:47.548Z,1005.49
2018-07-15T00:01:47.521Z,1005.48
2018-07-15T00:02:47.504Z,1005.50
2018-07-15T00:03:47.471Z,1005.49
2018-07-15T00:04:47.452Z,1005.50
2018-07-15T00:05:47.433Z,1005.46
2018-07-15T00:06:47.398Z,1005.49
2018-07-15T00:07:47.391Z,1005.51
2018-07-15T00:08:47.355Z,1005.45
2018-07-15T00:09:47.324Z,1005.48
2018-07-15T00:10:47.303Z,1005.49
2018-07-15T00:11:47.278Z,1005.49
2018-07-15T00:12:47.251Z,1005.49
2018-07-15T00:13:47.240Z,1005.48
2018-07-15T00:14:47.210Z,1005.49
2018-07-15T00:15:47.183Z,1005.48
2018-07-15T00:16:47.174Z,1005.53
2018-07-15T00:17:47.129Z,1005.50
2018-07-15T00:18:47.110Z,1005.50
2018-07-15T00:19:47.081Z,1005.50
2018-07-15T00:20:47.056Z,1005.48
2018-07-15T00:21:47.038Z,1005.48
2018-07-15T00:22:47.016Z,1005.53
2018-07-15T00:23:46.989Z,1005.49
2018-07-15T00:24:46.964Z,1005.49
2018-07-15T00:25:46.937Z,1005.47
2018-07-15T00:26:46.919Z,1005.50
2018-07-15T00:27:46.884Z,1005.45
2018-07-15T00:28:46.864Z,1005.48
2018-07-15T00:29:46.843Z,1005.49
2018-07-15T00:30:46.837Z,1005.45
2018-07-15T00:31:46.794Z,1005.50
2018-07-15T00:32:46.762Z,1005.47
2018-07-15T00:33:46.748Z,1005.43
2018-07-15T00:34:46.719Z,1005.41
2018-07-15T00:35:46.688Z,1005.43
2018-07-15T00:36:46.670Z,1005.43
2018-07-15T00:37:46.639Z,1005.44
2018-07-15T00:38:46.619Z,1005.44
2018-07-15T00:39:46.595Z,1005.40
2018-07-15T00:40:46.569Z,1005.42
2018-07-15T00:41:46.542Z,1005.39
2018-07-15T00:42:46.520Z,1005.41
2018-07-15T00:43:46.497Z,1005.38
2018-07-15T00:44:46.471Z,1005.36
2018-07-15T00:45:46.443Z,1005.37
2018-07-15T00:46:46.428Z,1005.39
2018-07-15T00:47:46.405Z,1005.38
2018-07-15T00:48:46.369Z,1005.40
2018-07-15T00:49:46.352Z,1005.35
2018-07-15T00:50:46.320Z,1005.38
2018-07-15T00:51:46.306Z,1005.38
2018-07-15T00:52:46.276Z,1005.33
2018-07-15T00:53:46.261Z,1005.36
2018-07-15T00:54:46.222Z,1005.38
2018-07-15T00:55:46.207Z,1005.33
2018-07-15T00:56:46.172Z,1005.37
2018-07-15T00:57:46.150Z,1005.36
2018-07-15T00:58:46.139Z,1005.35
2018-07-15T00:59:46.106Z,1005.36
2018-07-15T01:00:46.082Z,1005.36
2018-07-15T01:01:46.049Z,1005.33
2018-07-15T01:02:46.050Z,1005.31
2018-07-15T01:03:46.000Z,1005.31
2018-07-15T01:04:45.984Z,1005.29
2018-07-15T01:05:45.953Z,1005.28
2018-07-15T01:06:45.928Z,1005.25
2018-07-15T01:07:45.910Z,1005.26
2018-07-15T01:08:45.879Z,1005.24
2018-07-15T01:09:45.856Z,1005.27
2018-07-15T01:10:45.834Z,1005.26
2018-07-15T01:11:45.803Z,1005.24
2018-07-15T01:12:45.789Z,1005.24
2018-07-15T01:13:45.758Z,1005.25
2018-07-15T01:14:45.726Z,1005.25
2018-07-15T01:15:45.708Z,1005.25
2018-07-15T01:16:45.682Z,1005.28
2018-07-15T01:17:45.753Z,1005.25
2018-07-15T01:18:45.632Z,1005.23
2018-07-15T01:19:45.608Z,1005.20
2018-07-15T01:20:45.585Z,1005.22
2018-07-15T01:21:45.561Z,1005.21
2018-07-15T01:22:45.536Z,1005.23
2018-07-15T01:23:45.509Z,1005.21
2018-07-15T01:24:45.488Z,1005.17
2018-07-15T01:25:45.461Z,1005.21
2018-07-15T01:26:45.432Z,1005.22
2018-07-15T01:27:45.415Z,1005.23
2018-07-15T01:28:45.386Z,1005.18
2018-07-15T01:29:45.371Z,1005.20
2018-07-15T01:30:45.345Z,1005.17
2018-07-15T01:31:45.314Z,1005.16
2018-07-15T01:32:45.290Z,1005.18
2018-07-15T01:33:45.259Z,1005.20
2018-07-15T01:34:45.241Z,1005.20
2018-07-15T01:35:45.217Z,1005.19
2018-07-15T01:36:45.197Z,1005.19
2018-07-15T01:37:45.166Z,1005.19
2018-07-15T01:38:45.145Z,1005.19
2018-07-15T01:39:45.111Z,1005.18
2018-07-15T01:40:45.095Z,1005.21
2018-07-15T01:41:45.072Z,1005.20
2018-07-15T01:42:45.044Z,1005.22
2018-07-15T01:43:45.018Z,1005.24
2018-07-15T01:44:44.990Z,1005.24
2018-07-15T01:45:44.962Z,1005.24
2018-07-15T01:46:44.944Z,1005.25
2018-07-15T01:47:44.928Z,1005.27
2018-07-15T01:48:44.892Z,1005.25
2018-07-15T01:49:44.868Z,1005.25
2018-07-15T01:50:44.844Z,1005.27
2018-07-15T01:51:44.813Z,1005.26
2018-07-15T01:52:44.796Z,1005.20
2018-07-15T01:53:44.782Z,1005.19
2018-07-15T01:54:44.745Z,1005.19
2018-07-15T01:55:44.717Z,1005.17
2018-07-15T01:56:44.688Z,1005.18
2018-07-15T01:57:44.674Z,1005.16
2018-07-15T01:58:44.641Z,1005.18
2018-07-15T01:59:44.622Z,1005.20
2018-07-15T02:00:44.596Z,1005.17
2018-07-15T02:01:44.567Z,1005.16
2018-07-15T02:02:44.548Z,1005.17
2018-07-15T02:03:44.521Z,1005.18
2018-07-15T02:04:44.520Z,1005.15
2018-07-15T02:05:44.478Z,1005.16
2018-07-15T02:06:44.440Z,1005.15
2018-07-15T02:07:44.433Z,1005.18
2018-07-15T02:08:44.391Z,1005.18
2018-07-15T02:09:44.375Z,1005.15
2018-07-15T02:10:44.347Z,1005.14
2018-07-15T02:11:44.315Z,1005.14
2018-07-15T02:12:44.299Z,1005.20
2018-07-15T02:13:44.280Z,1005.16
2018-07-15T02:14:44.250Z,1005.14
2018-07-15T02:15:44.223Z,1005.17
2018-07-15T02:16:44.196Z,1005.18
2018-07-15T02:17:44.179Z,1005.14
2018-07-15T02:18:44.141Z,1005.16
2018-07-15T02:19:44.132Z,1005.18
2018-07-15T02:20:44.090Z,1005.17
2018-07-15T02:21:44.072Z,1005.18
2018-07-15T02:22:44.051Z,1005.14
2018-07-15T02:23:44.017Z,1005.14
2018-07-15T02:24:44.016Z,1005.15
2018-07-15T02:25:43.977Z,1005.13
2018-07-15T02:26:43.944Z,1005.13
2018-07-15T02:27:43.925Z,1005.17
2018-07-15T02:28:43.898Z,1005.15
2018-07-15T02:29:43.878Z,1005.17
2018-07-15T02:30:43.845Z,1005.12
2018-07-15T02:31:43.819Z,1005.16
2018-07-15T02:32:43.793Z,1005.13
2018-07-15T02:33:43.778Z,1005.11
2018-07-15T02:34:43.746Z,1005.14
2018-07-15T02:35:43.725Z,1005.14
2018-07-15T02:36:43.703Z,1005.17
2018-07-15T02:37:43.670Z,1005.16
2018-07-15T02:38:43.649Z,1005.15
2018-07-15T02:39:43.621Z,1005.13
2018-07-15T02:40:43.595Z,1005.08
2018-07-15T02:41:43.577Z,1005.14
2018-07-15T02:42:43.543Z,1005.12
2018-07-15T02:43:43.522Z,1005.11
2018-07-15T02:44:43.513Z,1005.13
2018-07-15T02:45:43.470Z,1005.13
2018-07-15T02:46:43.458Z,1005.11
2018-07-15T02:47:43.422Z,1005.17
2018-07-15T02:48:43.401Z,1005.14
2018-07-15T02:49:43.367Z,1005.14
2018-07-15T02:50:43.357Z,1005.15
2018-07-15T02:51:43.320Z,1005.15
2018-07-15T02:52:43.292Z,1005.15
2018-07-15T02:53:43.272Z,1005.16
2018-07-15T02:54:43.243Z,1005.16
2018-07-15T02:55:43.221Z,1005.11
2018-07-15T02:56:43.217Z,1005.12
2018-07-15T02:57:43.167Z,1005.18
2018-07-15T02:58:43.146Z,1005.13
2018-07-15T02:59:43.122Z,1005.14
2018-07-15T03:00:43.092Z,1005.11
2018-07-15T03:01:43.079Z,1005.08
2018-07-15T03:02:43.047Z,1005.08
2018-07-15T03:03:43.021Z,1005.08
2018-07-15T03:04:42.989Z,1005.10
2018-07-15T03:05:42.975Z,1005.06
2018-07-15T03:06:42.950Z,1005.06
2018-07-15T03:07:42.926Z,1005.03
2018-07-15T03:08:42.905Z,1005.04
2018-07-15T03:09:42.873Z,1005.03
2018-07-15T03:10:42.845Z,1004.99
2018-07-15T03:11:42.818Z,1005.01
2018-07-15T03:12:42.799Z,1005.02
2018-07-15T03:13:42.766Z,1005.00
2018-07-15T03:14:42.744Z,1005.02
2018-07-15T03:15:42.720Z,1005.00
2018-07-15T03:16:42.816Z,1005.00
2018-07-15T03:17:42.670Z,1004.99
2018-07-15T03:18:42.650Z,1005.02
2018-07-15T03:19:42.623Z,1005.01
2018-07-15T03:20:42.600Z,1005.01
2018-07-15T03:21:42.569Z,1005.02
2018-07-15T03:22:42.545Z,1005.01
2018-07-15T03:23:42.524Z,1005.02
2018-07-15T03:24:42.494Z,1005.01
2018-07-15T03:25:42.472Z,1005.03
2018-07-15T03:26:42.440Z,1004.97
2018-07-15T03:27:42.422Z,1005.02
2018-07-15T03:28:42.391Z,1004.98
2018-07-15T03:29:42.369Z,1004.95
2018-07-15T03:30:42.355Z,1004.98
2018-07-15T03:31:42.315Z,1004.95
2018-07-15T03:32:42.295Z,1005.01
2018-07-15T03:33:42.271Z,1004.97
2018-07-15T03:34:42.237Z,1004.97
2018-07-15T03:35:42.220Z,1004.96
2018-07-15T03:36:42.208Z,1005.00
2018-07-15T03:37:42.169Z,1004.95
2018-07-15T03:38:42.146Z,1004.97
2018-07-15T03:39:42.118Z,1004.97
2018-07-15T03:40:42.090Z,1004.96
2018-07-15T03:41:42.069Z,1004.91
2018-07-15T03:42:42.041Z,1004.99
2018-07-15T03:43:42.012Z,1004.94
2018-07-15T03:44:41.984Z,1004.96
2018-07-15T03:45:41.968Z,1004.95
2018-07-15T03:46:41.939Z,1004.94
2018-07-15T03:47:41.918Z,1004.94
2018-07-15T03:48:41.896Z,1004.92
2018-07-15T03:49:41.860Z,1004.91
2018-07-15T03:50:41.848Z,1004.91
2018-07-15T03:51:41.815Z,1004.95
2018-07-15T03:52:41.786Z,1004.93
2018-07-15T03:53:41.763Z,1004.93
2018-07-15T03:54:41.732Z,1004.91
2018-07-15T03:55:41.725Z,1004.91
2018-07-15T03:56:41.688Z,1004.92
2018-07-15T03:57:41.667Z,1004.90
2018-07-15T03:58:41.637Z,1004.90
2018-07-15T03:59:41.612Z,1004.90
2018-07-15T04:00:41.643Z,1004.90
2018-07-15T04:01:41.563Z,1004.86
2018-07-15T04:02:41.534Z,1004.86
2018-07-15T04:03:41.510Z,1004.88
2018-07-15T04:04:41.480Z,1004.86
2018-07-15T04:05:41.464Z,1004.86
2018-07-15T04:06:41.430Z,1004.89
2018-07-15T04:07:41.410Z,1004.81
2018-07-15T04:08:41.546Z,1004.85
2018-07-15T04:09:41.356Z,1004.82
2018-07-15T04:10:41.336Z,1004.82
2018-07-15T04:11:41.306Z,1004.82
2018-07-15T04:12:41.280Z,1004.78
2018-07-15T04:13:41.256Z,1004.77
2018-07-15T04:14:41.234Z,1004.75
2018-07-15T04:15:41.208Z,1004.74
2018-07-15T04:16:41.230Z,1004.75
2018-07-15T04:17:41.159Z,1004.77
2018-07-15T04:18:41.131Z,1004.72
2018-07-15T04:19:41.113Z,1004.76
2018-07-15T04:20:41.080Z,1004.72
2018-07-15T04:21:41.057Z,1004.71
2018-07-15T04:22:41.039Z,1004.76
2018-07-15T04:23:41.006Z,1004.75
2018-07-15T04:24:40.986Z,1004.71
2018-07-15T04:25:40.950Z,1004.72
2018-07-15T04:26:40.924Z,1004.68
2018-07-15T04:27:40.909Z,1004.70
2018-07-15T04:28:40.876Z,1004.68
2018-07-15T04:29:40.854Z,1004.66
2018-07-15T04:30:40.826Z,1004.66
2018-07-15T04:31:40.808Z,1004.64
2018-07-15T04:32:40.781Z,1004.66
2018-07-15T04:33:40.756Z,1004.65
2018-07-15T04:34:40.726Z,1004.65
2018-07-15T04:35:40.702Z,1004.68
2018-07-15T04:36:40.680Z,1004.68
2018-07-15T04:37:40.651Z,1004.68
2018-07-15T04:38:40.628Z,1004.69
2018-07-15T04:39:40.633Z,1004.65
2018-07-15T04:40:40.572Z,1004.66
2018-07-15T04:41:40.555Z,1004.69
2018-07-15T04:42:40.529Z,1004.70
2018-07-15T04:43:40.523Z,1004.69
2018-07-15T04:44:40.488Z,1004.75
2018-07-15T04:45:40.453Z,1004.68
2018-07-15T04:46:40.419Z,1004.72
2018-07-15T04:47:40.410Z,1004.74
2018-07-15T04:48:40.376Z,1004.73
2018-07-15T04:49:40.350Z,1004.74
2018-07-15T04:50:40.329Z,1004.73
2018-07-15T04:51:40.295Z,1004.72
2018-07-15T04:52:40.272Z,1004.70
2018-07-15T04:53:40.251Z,1004.73
2018-07-15T04:54:40.228Z,1004.69
2018-07-15T04:55:40.192Z,1004.67
2018-07-15T04:56:40.172Z,1004.64
2018-07-15T04:57:40.150Z,1004.66
2018-07-15T04:58:40.120Z,1004.64
2018-07-15T04:59:40.113Z,1004.67
2018-07-15T05:00:40.073Z,1004.61
2018-07-15T05:01:40.046Z,1004.64
2018-07-15T05:02:40.027Z,1004.66
2018-07-15T05:03:39.992Z,1004.69
2018-07-15T05:04:39.970Z,1004.68
2018-07-15T05:05:39.946Z,1004.67
2018-07-15T05:06:39.917Z,1004.66
2018-07-15T05:07:39.901Z,1004.69
2018-07-15T05:08:39.871Z,1004.71
2018-07-15T05:09:39.848Z,1004.69
2018-07-15T05:10:39.817Z,1004.69
2018-07-15T05:11:39.799Z,1004.70
2018-07-15T05:12:39.771Z,1004.67
2018-07-15T05:13:39.777Z,1004.73
2018-07-15T05:14:39.723Z,1004.69
2018-07-15T05:15:39.691Z,1004.74
2018-07-15T05:16:39.674Z,1004.76
2018-07-15T05:17:39.639Z,1004.76
2018-07-15T05:18:39.616Z,1004.81
2018-07-15T05:19:39.598Z,1004.84
2018-07-15T05:20:39.570Z,1004.82
2018-07-15T05:21:39.541Z,1004.84
2018-07-15T05:22:39.521Z,1004.79
2018-07-15T05:23:39.567Z,1004.82
2018-07-15T05:24:39.464Z,1004.85
2018-07-15T05:25:39.443Z,1004.81
2018-07-15T05:26:39.419Z,1004.82
2018-07-15T05:27:39.395Z,1004.85
2018-07-15T05:28:39.444Z,1004.85
2018-07-15T05:29:39.341Z,1004.85
2018-07-15T05:30:39.311Z,1004.85
2018-07-15T05:31:39.289Z,1004.84
2018-07-15T05:32:39.267Z,1004.90
2018-07-15T05:33:39.277Z,1004.88
2018-07-15T05:34:39.212Z,1004.87
2018-07-15T05:35:39.191Z,1004.86
2018-07-15T05:36:39.191Z,1004.89
2018-07-15T05:37:39.142Z,1004.91
2018-07-15T05:38:39.119Z,1004.91
2018-07-15T05:39:39.092Z,1004.91
2018-07-15T05:40:39.065Z,1004.90
2018-07-15T05:41:39.038Z,1004.92
2018-07-15T05:42:39.015Z,1004.92
2018-07-15T05:43:38.989Z,1004.92
2018-07-15T05:44:38.963Z,1004.91
2018-07-15T05:45:38.946Z,1004.89
2018-07-15T05:46:38.921Z,1004.87
2018-07-15T05:47:38.893Z,1004.88
2018-07-15T05:48:38.867Z,1004.92
2018-07-15T05:49:38.836Z,1004.92
2018-07-15T05:50:38.815Z,1004.95
2018-07-15T05:51:38.806Z,1004.93
2018-07-15T05:52:38.765Z,1004.89
2018-07-15T05:53:38.736Z,1004.94
2018-07-15T05:54:38.879Z,1004.93
2018-07-15T05:55:38.684Z,1004.92
2018-07-15T05:56:38.682Z,1004.91
2018-07-15T05:57:38.638Z,1004.91
2018-07-15T05:58:38.624Z,1004.92
2018-07-15T05:59:38.589Z,1004.93
2018-07-15T06:00:38.568Z,1004.94
2018-07-15T06:01:38.535Z,1004.92
2018-07-15T06:02:38.520Z,1004.90
2018-07-15T06:03:38.486Z,1004.90
2018-07-15T06:04:38.457Z,1004.89
2018-07-15T06:05:38.445Z,1004.89
2018-07-15T06:06:38.416Z,1004.87
2018-07-15T06:07:38.386Z,1004.88
2018-07-15T06:08:38.360Z,1004.88
2018-07-15T06:09:38.338Z,1004.90
2018-07-15T06:10:38.341Z,1004.88
2018-07-15T06:11:38.292Z,1004.92
2018-07-15T06:12:38.264Z,1004.96
2018-07-15T06:13:38.241Z,1004.93
2018-07-15T06:14:38.215Z,1004.95
2018-07-15T06:15:38.185Z,1004.94
2018-07-15T06:16:38.176Z,1004.92
2018-07-15T06:17:38.143Z,1004.92
2018-07-15T06:18:38.111Z,1004.90
2018-07-15T06:19:38.089Z,1004.90
2018-07-15T06:20:38.065Z,1004.90
2018-07-15T06:21:38.034Z,1004.91
2018-07-15T06:22:38.048Z,1004.91
2018-07-15T06:23:37.992Z,1004.92
2018-07-15T06:24:37.969Z,1004.94
2018-07-15T06:25:37.935Z,1004.91
2018-07-15T06:26:37.915Z,1004.92
2018-07-15T06:27:37.883Z,1004.93
2018-07-15T06:28:37.862Z,1004.94
2018-07-15T06:29:37.840Z,1004.91
2018-07-15T06:30:37.820Z,1004.91
2018-07-15T06:32:37.780Z,1004.91
2018-07-15T06:33:37.736Z,1004.94
2018-07-15T06:34:37.713Z,1004.88
2018-07-15T06:35:37.694Z,1004.89
2018-07-15T06:36:37.658Z,1004.90
2018-07-15T06:37:37.636Z,1004.88
2018-07-15T06:38:37.612Z,1004.86
2018-07-15T06:39:37.590Z,1004.89
2018-07-15T06:40:37.564Z,1004.89
2018-07-15T06:41:37.550Z,1004.85
2018-07-15T06:42:37.517Z,1004.85
2018-07-15T06:43:37.491Z,1004.88
2018-07-15T06:44:37.478Z,1004.89
2018-07-15T06:45:37.440Z,1004.87
2018-07-15T06:46:37.421Z,1004.86
2018-07-15T06:47:37.388Z,1004.87
2018-07-15T06:48:37.361Z,1004.86
2018-07-15T06:49:37.345Z,1004.84
2018-07-15T06:50:37.325Z,1004.86
2018-07-15T06:51:37.295Z,1004.84
2018-07-15T06:52:37.270Z,1004.85
2018-07-15T06:53:37.243Z,1004.87
2018-07-15T06:54:37.219Z,1004.86
2018-07-15T06:55:37.196Z,1004.86
2018-07-15T06:56:37.172Z,1004.85
2018-07-15T06:57:37.141Z,1004.86
2018-07-15T06:58:37.115Z,1004.88
2018-07-15T06:59:37.101Z,1004.87
2018-07-15T07:00:37.073Z,1004.88
2018-07-15T07:01:37.143Z,1004.87
2018-07-15T07:02:37.020Z,1004.84
2018-07-15T07:03:37.001Z,1004.80
2018-07-15T07:04:36.974Z,1004.83
2018-07-15T07:05:36.941Z,1004.80
2018-07-15T07:06:36.923Z,1004.80
2018-07-15T07:07:36.930Z,1004.81
2018-07-15T07:08:36.871Z,1004.83
2018-07-15T07:09:36.843Z,1004.81
2018-07-15T07:10:36.835Z,1004.80
2018-07-15T07:11:36.801Z,1004.81
2018-07-15T07:12:36.777Z,1004.82
2018-07-15T07:13:36.753Z,1004.82
2018-07-15T07:14:36.726Z,1004.81
2018-07-15T07:15:36.696Z,1004.79
2018-07-15T07:16:36.688Z,1004.83
2018-07-15T07:17:36.647Z,1004.83
2018-07-15T07:18:36.622Z,1004.83
2018-07-15T07:19:36.597Z,1004.84
2018-07-15T07:20:36.645Z,1004.83
2018-07-15T07:21:36.553Z,1004.84
2018-07-15T07:22:36.525Z,1004.80
2018-07-15T07:23:36.507Z,1004.84
2018-07-15T07:24:36.477Z,1004.84
2018-07-15T07:25:36.456Z,1004.84
2018-07-15T07:26:36.431Z,1004.82
2018-07-15T07:27:36.400Z,1004.84
2018-07-15T07:28:36.378Z,1004.88
2018-07-15T07:29:36.356Z,1004.84
2018-07-15T07:30:36.327Z,1004.84
2018-07-15T07:31:36.311Z,1004.82
2018-07-15T07:32:36.288Z,1004.83
2018-07-15T07:33:36.257Z,1004.81
2018-07-15T07:34:36.234Z,1004.79
2018-07-15T07:35:36.217Z,1004.78
2018-07-15T07:36:36.182Z,1004.82
2018-07-15T07:37:36.165Z,1004.78
2018-07-15T07:38:36.171Z,1004.80
2018-07-15T07:39:36.111Z,1004.82
2018-07-15T07:40:36.092Z,1004.81
2018-07-15T07:41:36.073Z,1004.78
2018-07-15T07:42:36.034Z,1004.80
2018-07-15T07:43:36.019Z,1004.82
2018-07-15T07:44:35.990Z,1004.80
2018-07-15T07:45:35.970Z,1004.80
2018-07-15T07:46:35.943Z,1004.84
2018-07-15T07:47:35.914Z,1004.85
2018-07-15T07:48:35.888Z,1004.78
2018-07-15T07:49:35.875Z,1004.83
2018-07-15T07:50:35.846Z,1004.79
2018-07-15T07:51:35.813Z,1004.84
2018-07-15T07:52:35.797Z,1004.80
2018-07-15T07:53:35.775Z,1004.83
2018-07-15T07:54:35.746Z,1004.83
2018-07-15T07:55:35.727Z,1004.83
2018-07-15T07:56:35.699Z,1004.84
2018-07-15T07:57:35.679Z,1004.84
2018-07-15T07:58:35.651Z,1004.86
2018-07-15T07:59:35.619Z,1004.80
2018-07-15T08:00:35.605Z,1004.79
2018-07-15T08:01:35.572Z,1004.78
2018-07-15T08:02:35.546Z,1004.76
2018-07-15T08:03:35.529Z,1004.80
2018-07-15T08:04:35.498Z,1004.82
2018-07-15T08:05:35.480Z,1004.83
2018-07-15T08:06:35.464Z,1004.85
2018-07-15T08:07:35.455Z,1004.82
2018-07-15T08:08:35.404Z,1004.83
2018-07-15T08:09:35.386Z,1004.81
2018-07-15T08:10:35.368Z,1004.85
2018-07-15T08:11:35.342Z,1004.87
2018-07-15T08:12:35.313Z,1004.87
2018-07-15T08:13:35.288Z,1004.85
2018-07-15T08:14:35.256Z,1004.87
2018-07-15T08:15:35.240Z,1004.87
2018-07-15T08:16:35.211Z,1004.85
2018-07-15T08:17:35.194Z,1004.86
2018-07-15T08:18:35.168Z,1004.89
2018-07-15T08:19:35.135Z,1004.85
2018-07-15T08:20:35.118Z,1004.88
2018-07-15T08:21:35.105Z,1004.84
2018-07-15T08:22:35.106Z,1004.83
2018-07-15T08:23:35.043Z,1004.86
2018-07-15T08:24:35.016Z,1004.82
2018-07-15T08:25:35.000Z,1004.84
2018-07-15T08:26:34.965Z,1004.82
2018-07-15T08:27:34.955Z,1004.84
2018-07-15T08:28:35.028Z,1004.84
2018-07-15T08:29:34.903Z,1004.80
2018-07-15T08:30:34.879Z,1004.77
2018-07-15T08:31:34.847Z,1004.79
2018-07-15T08:32:34.824Z,1004.78
2018-07-15T08:33:34.801Z,1004.76
2018-07-15T08:34:34.778Z,1004.80
2018-07-15T08:35:34.768Z,1004.78
2018-07-15T08:36:34.729Z,1004.75
2018-07-15T08:37:34.703Z,1004.76
2018-07-15T08:38:34.682Z,1004.77
2018-07-15T08:39:34.654Z,1004.76
2018-07-15T08:40:34.688Z,1004.77
2018-07-15T08:41:34.646Z,1004.79
2018-07-15T08:42:34.588Z,1004.78
2018-07-15T08:43:34.560Z,1004.79
2018-07-15T08:44:34.532Z,1004.84
2018-07-15T08:45:34.565Z,1004.78
2018-07-15T08:46:34.486Z,1004.78
2018-07-15T08:47:34.466Z,1004.75
2018-07-15T08:48:34.440Z,1004.83
2018-07-15T08:49:34.429Z,1004.77
2018-07-15T08:50:34.392Z,1004.77
2018-07-15T08:51:34.364Z,1004.75
2018-07-15T08:52:34.345Z,1004.77
2018-07-15T08:53:34.321Z,1004.77
2018-07-15T08:54:34.354Z,1004.81
2018-07-15T08:55:34.275Z,1004.80
2018-07-15T08:56:34.257Z,1004.80
2018-07-15T08:57:34.217Z,1004.87
2018-07-15T08:58:34.196Z,1004.81
2018-07-15T08:59:34.175Z,1004.78
2018-07-15T09:00:34.143Z,1004.81
2018-07-15T09:01:34.133Z,1004.87
2018-07-15T09:02:34.142Z,1004.83
2018-07-15T09:03:34.078Z,1004.81
2018-07-15T09:04:34.060Z,1004.80
2018-07-15T09:05:34.048Z,1004.79
2018-07-15T09:06:34.004Z,1004.82
2018-07-15T09:07:33.982Z,1004.79
2018-07-15T09:08:33.967Z,1004.78
2018-07-15T09:09:33.935Z,1004.78
2018-07-15T09:10:33.920Z,1004.77
2018-07-15T09:11:33.930Z,1004.74
2018-07-15T09:12:33.911Z,1004.76
2018-07-15T09:13:33.846Z,1004.76
2018-07-15T09:14:33.814Z,1004.77
2018-07-15T09:15:33.786Z,1004.72
2018-07-15T09:16:33.775Z,1004.74
2018-07-15T09:17:33.737Z,1004.74
2018-07-15T09:18:33.751Z,1004.71
2018-07-15T09:19:33.694Z,1004.70
2018-07-15T09:20:33.662Z,1004.71
2018-07-15T09:21:33.873Z,1004.67
2018-07-15T09:22:33.629Z,1004.72
2018-07-15T09:23:33.601Z,1004.67
2018-07-15T09:24:33.578Z,1004.67
2018-07-15T09:25:33.546Z,1004.70
2018-07-15T09:26:33.525Z,1004.68
2018-07-15T09:27:33.495Z,1004.72
2018-07-15T09:28:33.475Z,1004.68
2018-07-15T09:29:33.463Z,1004.67
2018-07-15T09:30:33.436Z,1004.64
2018-07-15T09:31:33.403Z,1004.69
2018-07-15T09:32:33.524Z,1004.71
2018-07-15T09:33:33.362Z,1004.70
2018-07-15T09:34:33.329Z,1004.69
2018-07-15T09:35:33.346Z,1004.69
2018-07-15T09:36:33.290Z,1004.68
2018-07-15T09:37:33.264Z,1004.70
2018-07-15T09:38:33.239Z,1004.73
2018-07-15T09:39:33.214Z,1004.71
2018-07-15T09:40:33.382Z,1004.75
2018-07-15T09:41:33.171Z,1004.75
2018-07-15T09:42:33.137Z,1004.74
2018-07-15T09:43:33.125Z,1004.71
2018-07-15T09:44:33.094Z,1004.72
2018-07-15T09:45:33.068Z,1004.72
2018-07-15T09:46:33.081Z,1004.73
2018-07-15T09:47:33.034Z,1004.73
2018-07-15T09:48:33.009Z,1004.80
2018-07-15T09:49:32.978Z,1004.72
2018-07-15T09:50:32.954Z,1004.73
2018-07-15T09:51:32.927Z,1004.76
2018-07-15T09:52:32.907Z,1004.76
2018-07-15T09:53:32.927Z,1004.71
2018-07-15T09:54:32.884Z,1004.71
2018-07-15T09:55:32.837Z,1004.63
2018-07-15T09:56:32.816Z,1004.70
2018-07-15T09:57:32.786Z,1004.68
2018-07-15T09:58:32.764Z,1004.67
2018-07-15T09:59:32.762Z,1004.68
2018-07-15T10:00:32.720Z,1004.66
2018-07-15T10:01:32.693Z,1004.65
2018-07-15T10:02:32.663Z,1004.67
2018-07-15T10:03:32.654Z,1004.68
2018-07-15T10:04:32.628Z,1004.59
2018-07-15T10:05:32.594Z,1004.68
2018-07-15T10:06:32.580Z,1004.62
2018-07-15T10:07:32.644Z,1004.62
2018-07-15T10:08:32.538Z,1004.62
2018-07-15T10:09:32.496Z,1004.63
2018-07-15T10:10:32.571Z,1004.56
2018-07-15T10:11:32.453Z,1004.56
2018-07-15T10:12:32.426Z,1004.60
2018-07-15T10:13:32.467Z,1004.60
2018-07-15T10:14:32.388Z,1004.57
2018-07-15T10:15:32.363Z,1004.59
2018-07-15T10:16:32.331Z,1004.57
2018-07-15T10:17:32.327Z,1004.56
2018-07-15T10:18:32.284Z,1004.60
2018-07-15T10:19:32.267Z,1004.56
2018-07-15T10:20:32.250Z,1004.56
2018-07-15T10:21:32.218Z,1004.57
2018-07-15T10:22:32.191Z,1004.55
2018-07-15T10:23:32.173Z,1004.53
2018-07-15T10:24:32.141Z,1004.55
2018-07-15T10:25:32.130Z,1004.55
2018-07-15T10:26:32.116Z,1004.53
2018-07-15T10:27:32.069Z,1004.45
2018-07-15T10:28:32.057Z,1004.50
2018-07-15T10:29:32.026Z,1004.50
2018-07-15T10:30:32.001Z,1004.51
2018-07-15T10:31:31.976Z,1004.49
2018-07-15T10:32:31.960Z,1004.49
2018-07-15T10:33:31.952Z,1004.49
2018-07-15T10:34:31.917Z,1004.44
2018-07-15T10:35:31.902Z,1004.43
2018-07-15T10:36:31.863Z,1004.43
2018-07-15T10:37:31.857Z,1004.47
2018-07-15T10:38:31.826Z,1004.49
2018-07-15T10:39:31.792Z,1004.47
2018-07-15T10:40:31.779Z,1004.50
2018-07-15T10:41:31.744Z,1004.45
2018-07-15T10:42:31.736Z,1004.44
2018-07-15T10:43:31.696Z,1004.44
2018-07-15T10:44:31.718Z,1004.44
2018-07-15T10:45:31.664Z,1004.44
2018-07-15T10:46:31.634Z,1004.42
2018-07-15T10:47:31.612Z,1004.38
2018-07-15T10:48:31.575Z,1004.35
2018-07-15T10:49:31.562Z,1004.37
2018-07-15T10:50:31.536Z,1004.34
2018-07-15T10:51:31.517Z,1004.34
2018-07-15T10:52:31.495Z,1004.38
2018-07-15T10:53:31.459Z,1004.32
2018-07-15T10:54:31.459Z,1004.27
2018-07-15T10:55:31.415Z,1004.31
2018-07-15T10:56:31.405Z,1004.30
2018-07-15T10:57:31.374Z,1004.28
2018-07-15T10:58:31.345Z,1004.27
2018-07-15T10:59:31.326Z,1004.26
2018-07-15T11:00:31.309Z,1004.26
2018-07-15T11:01:31.271Z,1004.26
2018-07-15T11:02:31.251Z,1004.21
2018-07-15T11:03:31.236Z,1004.30
2018-07-15T11:04:31.204Z,1004.26
2018-07-15T11:05:31.184Z,1004.22
2018-07-15T11:06:31.163Z,1004.20
2018-07-15T11:07:31.135Z,1004.22
2018-07-15T11:08:31.113Z,1004.18
2018-07-15T11:09:31.089Z,1004.15
2018-07-15T11:10:31.124Z,1004.16
2018-07-15T11:11:31.089Z,1004.16
2018-07-15T11:12:31.022Z,1004.14
2018-07-15T11:13:31.046Z,1004.12
2018-07-15T11:14:30.975Z,1004.15
2018-07-15T11:15:30.966Z,1004.12
2018-07-15T11:16:30.971Z,1004.10
2018-07-15T11:17:30.899Z,1004.09
2018-07-15T11:18:30.882Z,1004.12
2018-07-15T11:19:30.851Z,1004.10
2018-07-15T11:20:30.829Z,1004.09
2018-07-15T11:21:30.810Z,1004.11
2018-07-15T11:22:30.833Z,1004.10
2018-07-15T11:23:30.770Z,1004.08
2018-07-15T11:24:30.738Z,1004.09
2018-07-15T11:25:30.716Z,1004.10
2018-07-15T11:26:30.694Z,1004.08
2018-07-15T11:27:30.664Z,1004.03
2018-07-15T11:28:30.643Z,1004.04
2018-07-15T11:29:30.618Z,1004.10
2018-07-15T11:30:30.609Z,1004.04
2018-07-15T11:31:30.659Z,1004.06
2018-07-15T11:32:30.547Z,1004.06
2018-07-15T11:33:30.555Z,1004.06
2018-07-15T11:34:30.500Z,1004.06
2018-07-15T11:35:30.487Z,1004.05
2018-07-15T11:36:30.458Z,1004.07
2018-07-15T11:37:30.431Z,1004.03
2018-07-15T11:38:30.416Z,1003.99
2018-07-15T11:39:30.398Z,1004.02
2018-07-15T11:40:30.363Z,1004.03
2018-07-15T11:41:30.342Z,1004.01
2018-07-15T11:42:30.318Z,1003.98
2018-07-15T11:43:30.296Z,1004.01
2018-07-15T11:44:30.272Z,1004.03
2018-07-15T11:45:30.251Z,1003.98
2018-07-15T11:46:30.228Z,1004.02
2018-07-15T11:47:30.208Z,1003.98
2018-07-15T11:48:30.180Z,1003.95
2018-07-15T11:49:30.178Z,1003.97
2018-07-15T11:50:30.141Z,1003.95
2018-07-15T11:51:30.132Z,1003.90
2018-07-15T11:52:30.096Z,1003.89
2018-07-15T11:53:30.069Z,1003.92
2018-07-15T11:54:30.081Z,1003.88
2018-07-15T11:55:30.021Z,1003.93
2018-07-15T11:56:29.989Z,1003.91
2018-07-15T11:57:29.993Z,1003.93
2018-07-15T11:58:29.966Z,1003.88
2018-07-15T11:59:29.924Z,1003.88
2018-07-15T12:00:29.906Z,1003.87
2018-07-15T12:01:29.902Z,1003.83
2018-07-15T12:02:29.855Z,1003.84
2018-07-15T12:03:29.827Z,1003.85
2018-07-15T12:04:29.801Z,1003.75
2018-07-15T12:05:29.794Z,1003.83
2018-07-15T12:06:29.760Z,1003.79